sensor_id;sensor_type;location;lat;lon;timestamp;P1;durP1;ratioP1;P2;durP2;ratioP2
75470;SDS011;64051;46.320;48.028;2023-03-31T00:02:25;5.30;;;2.15;;
75470;SDS011;64051;46.320;48.028;2023-03-31T00:04:54;6.32;;;2.40;;
75470;SDS011;64051;46.320;48.028;2023-03-31T00:07:24;6.13;;;2.63;;
75470;SDS011;64051;46.320;48.028;2023-03-31T00:09:50;5.05;;;2.10;;
75470;SDS011;64051;46.320;48.028;2023-03-31T00:12:19;5.28;;;2.40;;
75470;SDS011;64051;46.320;48.028;2023-03-31T00:14:49;3.30;;;1.80;;
75470;SDS011;64051;46.320;48.028;2023-03-31T00:17:15;4.97;;;2.08;;
75470;SDS011;64051;46.320;48.028;2023-03-31T00:19:41;3.63;;;1.90;;
75470;SDS011;64051;46.320;48.028;2023-03-31T00:22:07;5.45;;;2.40;;
75470;SDS011;64051;46.320;48.028;2023-03-31T00:24:33;7.47;;;2.80;;
75470;SDS011;64051;46.320;48.028;2023-03-31T00:27:03;5.65;;;2.17;;
75470;SDS011;64051;46.320;48.028;2023-03-31T00:29:30;6.22;;;2.53;;
75470;SDS011;64051;46.320;48.028;2023-03-31T00:31:57;5.90;;;2.35;;
75470;SDS011;64051;46.320;48.028;2023-03-31T00:34:24;4.68;;;2.03;;
75470;SDS011;64051;46.320;48.028;2023-03-31T00:36:51;7.68;;;3.00;;
75470;SDS011;64051;46.320;48.028;2023-03-31T00:39:21;7.28;;;3.72;;
75470;SDS011;64051;46.320;48.028;2023-03-31T00:41:48;8.55;;;3.85;;
75470;SDS011;64051;46.320;48.028;2023-03-31T00:46:53;6.70;;;2.20;;
75470;SDS011;64051;46.320;48.028;2023-03-31T00:49:53;5.25;;;2.63;;
75470;SDS011;64051;46.320;48.028;2023-03-31T00:52:15;7.85;;;2.13;;
75470;SDS011;64051;46.320;48.028;2023-03-31T00:54:47;3.73;;;1.73;;
75470;SDS011;64051;46.320;48.028;2023-03-31T00:57:20;6.20;;;2.20;;
75470;SDS011;64051;46.320;48.028;2023-03-31T00:59:49;5.78;;;2.30;;
75470;SDS011;64051;46.320;48.028;2023-03-31T01:02:23;6.18;;;2.42;;
75470;SDS011;64051;46.320;48.028;2023-03-31T01:04:57;6.97;;;2.60;;
75470;SDS011;64051;46.320;48.028;2023-03-31T01:10:09;6.10;;;2.47;;
75470;SDS011;64051;46.320;48.028;2023-03-31T01:12:37;4.28;;;1.98;;
75470;SDS011;64051;46.320;48.028;2023-03-31T01:15:05;6.50;;;2.95;;
75470;SDS011;64051;46.320;48.028;2023-03-31T01:17:32;6.15;;;2.65;;
75470;SDS011;64051;46.320;48.028;2023-03-31T01:23:06;5.20;;;1.92;;
75470;SDS011;64051;46.320;48.028;2023-03-31T01:31:24;6.03;;;2.13;;
75470;SDS011;64051;46.320;48.028;2023-03-31T01:40:02;5.50;;;2.60;;
75470;SDS011;64051;46.320;48.028;2023-03-31T01:45:41;6.68;;;2.90;;
75470;SDS011;64051;46.320;48.028;2023-03-31T01:48:31;10.90;;;3.40;;
75470;SDS011;64051;46.320;48.028;2023-03-31T01:51:34;5.45;;;2.17;;
75470;SDS011;64051;46.320;48.028;2023-03-31T01:56:40;6.53;;;2.50;;
75470;SDS011;64051;46.320;48.028;2023-03-31T01:59:35;5.70;;;2.25;;
75470;SDS011;64051;46.320;48.028;2023-03-31T02:02:09;6.60;;;2.70;;
75470;SDS011;64051;46.320;48.028;2023-03-31T02:04:49;5.88;;;2.85;;
75470;SDS011;64051;46.320;48.028;2023-03-31T02:07:31;5.40;;;2.33;;
75470;SDS011;64051;46.320;48.028;2023-03-31T02:10:03;5.25;;;2.17;;
75470;SDS011;64051;46.320;48.028;2023-03-31T02:12:32;4.47;;;2.15;;
75470;SDS011;64051;46.320;48.028;2023-03-31T02:14:59;5.35;;;2.35;;
75470;SDS011;64051;46.320;48.028;2023-03-31T02:17:28;5.90;;;2.20;;
75470;SDS011;64051;46.320;48.028;2023-03-31T02:19:56;6.28;;;2.40;;
75470;SDS011;64051;46.320;48.028;2023-03-31T02:22:26;6.88;;;2.55;;
75470;SDS011;64051;46.320;48.028;2023-03-31T02:24:56;5.88;;;1.75;;
75470;SDS011;64051;46.320;48.028;2023-03-31T02:27:26;5.07;;;1.90;;
75470;SDS011;64051;46.320;48.028;2023-03-31T02:29:56;4.40;;;1.90;;
75470;SDS011;64051;46.320;48.028;2023-03-31T02:34:53;4.80;;;1.90;;
75470;SDS011;64051;46.320;48.028;2023-03-31T02:37:20;4.95;;;2.08;;
75470;SDS011;64051;46.320;48.028;2023-03-31T02:39:47;5.85;;;2.33;;
75470;SDS011;64051;46.320;48.028;2023-03-31T02:42:15;5.13;;;2.10;;
75470;SDS011;64051;46.320;48.028;2023-03-31T02:44:41;4.70;;;1.85;;
75470;SDS011;64051;46.320;48.028;2023-03-31T02:47:11;4.57;;;2.00;;
75470;SDS011;64051;46.320;48.028;2023-03-31T02:49:44;4.40;;;2.10;;
75470;SDS011;64051;46.320;48.028;2023-03-31T02:52:29;4.57;;;2.10;;
75470;SDS011;64051;46.320;48.028;2023-03-31T03:00:52;6.47;;;2.40;;
75470;SDS011;64051;46.320;48.028;2023-03-31T03:12:08;5.57;;;2.20;;
75470;SDS011;64051;46.320;48.028;2023-03-31T03:14:50;4.28;;;2.13;;
75470;SDS011;64051;46.320;48.028;2023-03-31T03:17:33;5.85;;;2.45;;
75470;SDS011;64051;46.320;48.028;2023-03-31T03:20:03;6.05;;;2.42;;
75470;SDS011;64051;46.320;48.028;2023-03-31T03:22:33;4.70;;;2.45;;
75470;SDS011;64051;46.320;48.028;2023-03-31T03:25:00;5.35;;;1.80;;
75470;SDS011;64051;46.320;48.028;2023-03-31T03:27:26;4.68;;;2.00;;
75470;SDS011;64051;46.320;48.028;2023-03-31T03:29:52;3.22;;;1.50;;
75470;SDS011;64051;46.320;48.028;2023-03-31T03:32:18;3.65;;;1.73;;
75470;SDS011;64051;46.320;48.028;2023-03-31T03:34:44;5.80;;;2.17;;
75470;SDS011;64051;46.320;48.028;2023-03-31T03:37:10;4.38;;;1.90;;
75470;SDS011;64051;46.320;48.028;2023-03-31T03:39:36;6.18;;;2.03;;
75470;SDS011;64051;46.320;48.028;2023-03-31T03:42:02;7.78;;;2.58;;
75470;SDS011;64051;46.320;48.028;2023-03-31T03:44:28;9.27;;;2.33;;
75470;SDS011;64051;46.320;48.028;2023-03-31T03:46:54;4.60;;;1.95;;
75470;SDS011;64051;46.320;48.028;2023-03-31T03:49:19;6.65;;;2.58;;
75470;SDS011;64051;46.320;48.028;2023-03-31T03:51:45;4.60;;;1.92;;
75470;SDS011;64051;46.320;48.028;2023-03-31T03:54:11;4.65;;;1.88;;
75470;SDS011;64051;46.320;48.028;2023-03-31T03:56:37;6.18;;;1.83;;
75470;SDS011;64051;46.320;48.028;2023-03-31T03:59:03;4.68;;;1.75;;
75470;SDS011;64051;46.320;48.028;2023-03-31T04:01:29;4.57;;;2.30;;
75470;SDS011;64051;46.320;48.028;2023-03-31T04:03:55;5.40;;;2.35;;
75470;SDS011;64051;46.320;48.028;2023-03-31T04:06:21;5.40;;;1.90;;
75470;SDS011;64051;46.320;48.028;2023-03-31T04:08:47;5.38;;;2.15;;
75470;SDS011;64051;46.320;48.028;2023-03-31T04:11:14;2.75;;;1.67;;
75470;SDS011;64051;46.320;48.028;2023-03-31T04:13:43;5.07;;;2.00;;
75470;SDS011;64051;46.320;48.028;2023-03-31T04:16:10;2.88;;;1.50;;
75470;SDS011;64051;46.320;48.028;2023-03-31T04:18:36;5.25;;;1.85;;
75470;SDS011;64051;46.320;48.028;2023-03-31T04:21:10;4.20;;;2.00;;
75470;SDS011;64051;46.320;48.028;2023-03-31T04:23:40;3.15;;;1.90;;
75470;SDS011;64051;46.320;48.028;2023-03-31T04:26:14;5.40;;;2.08;;
75470;SDS011;64051;46.320;48.028;2023-03-31T04:28:42;5.47;;;2.25;;
75470;SDS011;64051;46.320;48.028;2023-03-31T04:31:14;5.45;;;2.20;;
75470;SDS011;64051;46.320;48.028;2023-03-31T04:33:50;5.00;;;2.22;;
75470;SDS011;64051;46.320;48.028;2023-03-31T04:36:20;4.80;;;2.10;;
75470;SDS011;64051;46.320;48.028;2023-03-31T04:38:47;5.22;;;2.40;;
75470;SDS011;64051;46.320;48.028;2023-03-31T04:41:23;4.90;;;2.15;;
75470;SDS011;64051;46.320;48.028;2023-03-31T04:43:52;5.05;;;1.95;;
75470;SDS011;64051;46.320;48.028;2023-03-31T04:46:22;3.83;;;1.73;;
75470;SDS011;64051;46.320;48.028;2023-03-31T04:48:48;5.45;;;2.10;;
75470;SDS011;64051;46.320;48.028;2023-03-31T04:51:15;3.55;;;1.80;;
75470;SDS011;64051;46.320;48.028;2023-03-31T04:53:41;6.13;;;2.33;;
75470;SDS011;64051;46.320;48.028;2023-03-31T04:56:06;4.53;;;1.75;;
75470;SDS011;64051;46.320;48.028;2023-03-31T04:58:32;3.78;;;1.95;;
75470;SDS011;64051;46.320;48.028;2023-03-31T05:00:58;3.00;;;1.52;;
75470;SDS011;64051;46.320;48.028;2023-03-31T05:03:24;5.40;;;2.20;;
75470;SDS011;64051;46.320;48.028;2023-03-31T05:05:52;6.72;;;2.17;;
75470;SDS011;64051;46.320;48.028;2023-03-31T05:08:22;3.17;;;1.52;;
75470;SDS011;64051;46.320;48.028;2023-03-31T05:10:48;5.03;;;2.40;;
75470;SDS011;64051;46.320;48.028;2023-03-31T05:13:14;3.75;;;1.95;;
75470;SDS011;64051;46.320;48.028;2023-03-31T05:15:40;6.13;;;2.20;;
75470;SDS011;64051;46.320;48.028;2023-03-31T05:18:12;4.75;;;1.77;;
75470;SDS011;64051;46.320;48.028;2023-03-31T05:20:44;5.00;;;1.83;;
75470;SDS011;64051;46.320;48.028;2023-03-31T05:23:10;5.43;;;2.17;;
75470;SDS011;64051;46.320;48.028;2023-03-31T05:25:37;4.80;;;1.80;;
75470;SDS011;64051;46.320;48.028;2023-03-31T05:28:03;4.22;;;2.00;;
75470;SDS011;64051;46.320;48.028;2023-03-31T05:30:29;7.45;;;2.47;;
75470;SDS011;64051;46.320;48.028;2023-03-31T05:32:55;5.72;;;2.20;;
75470;SDS011;64051;46.320;48.028;2023-03-31T05:35:21;6.32;;;2.50;;
75470;SDS011;64051;46.320;48.028;2023-03-31T05:37:47;8.10;;;2.53;;
75470;SDS011;64051;46.320;48.028;2023-03-31T05:40:13;10.00;;;2.28;;
75470;SDS011;64051;46.320;48.028;2023-03-31T05:42:39;7.45;;;2.45;;
75470;SDS011;64051;46.320;48.028;2023-03-31T05:45:08;6.30;;;2.53;;
75470;SDS011;64051;46.320;48.028;2023-03-31T05:47:34;6.15;;;2.53;;
75470;SDS011;64051;46.320;48.028;2023-03-31T05:50:01;5.80;;;2.58;;
75470;SDS011;64051;46.320;48.028;2023-03-31T05:52:31;5.68;;;2.50;;
75470;SDS011;64051;46.320;48.028;2023-03-31T05:54:58;5.20;;;2.38;;
75470;SDS011;64051;46.320;48.028;2023-03-31T05:57:24;5.68;;;2.13;;
75470;SDS011;64051;46.320;48.028;2023-03-31T05:59:52;7.05;;;2.10;;
75470;SDS011;64051;46.320;48.028;2023-03-31T06:02:18;6.47;;;2.70;;
75470;SDS011;64051;46.320;48.028;2023-03-31T06:04:46;4.25;;;2.10;;
75470;SDS011;64051;46.320;48.028;2023-03-31T06:07:12;4.90;;;2.30;;
75470;SDS011;64051;46.320;48.028;2023-03-31T06:09:47;5.88;;;2.67;;
75470;SDS011;64051;46.320;48.028;2023-03-31T06:12:13;8.20;;;2.60;;
75470;SDS011;64051;46.320;48.028;2023-03-31T06:14:40;3.92;;;1.77;;
75470;SDS011;64051;46.320;48.028;2023-03-31T06:17:06;6.05;;;2.60;;
75470;SDS011;64051;46.320;48.028;2023-03-31T06:19:35;4.53;;;2.17;;
75470;SDS011;64051;46.320;48.028;2023-03-31T06:22:01;3.45;;;1.98;;
75470;SDS011;64051;46.320;48.028;2023-03-31T06:24:27;2.88;;;1.60;;
75470;SDS011;64051;46.320;48.028;2023-03-31T06:26:52;5.35;;;2.40;;
75470;SDS011;64051;46.320;48.028;2023-03-31T06:29:20;5.18;;;2.22;;
75470;SDS011;64051;46.320;48.028;2023-03-31T06:31:52;5.65;;;2.13;;
75470;SDS011;64051;46.320;48.028;2023-03-31T06:34:18;5.88;;;2.35;;
75470;SDS011;64051;46.320;48.028;2023-03-31T06:36:44;4.80;;;1.95;;
75470;SDS011;64051;46.320;48.028;2023-03-31T06:39:09;5.15;;;2.10;;
75470;SDS011;64051;46.320;48.028;2023-03-31T06:41:35;4.30;;;2.17;;
75470;SDS011;64051;46.320;48.028;2023-03-31T06:44:15;10.77;;;3.55;;
75470;SDS011;64051;46.320;48.028;2023-03-31T06:46:47;5.95;;;2.63;;
75470;SDS011;64051;46.320;48.028;2023-03-31T06:49:16;3.35;;;1.77;;
75470;SDS011;64051;46.320;48.028;2023-03-31T06:51:42;5.25;;;2.17;;
75470;SDS011;64051;46.320;48.028;2023-03-31T06:54:13;4.00;;;1.98;;
75470;SDS011;64051;46.320;48.028;2023-03-31T06:56:39;4.22;;;1.80;;
75470;SDS011;64051;46.320;48.028;2023-03-31T06:59:05;5.35;;;1.83;;
75470;SDS011;64051;46.320;48.028;2023-03-31T07:01:31;5.70;;;2.47;;
75470;SDS011;64051;46.320;48.028;2023-03-31T07:04:01;4.95;;;1.85;;
75470;SDS011;64051;46.320;48.028;2023-03-31T07:06:28;4.75;;;1.98;;
75470;SDS011;64051;46.320;48.028;2023-03-31T07:08:53;4.45;;;1.83;;
75470;SDS011;64051;46.320;48.028;2023-03-31T07:11:22;5.18;;;1.73;;
75470;SDS011;64051;46.320;48.028;2023-03-31T07:13:48;4.88;;;2.08;;
75470;SDS011;64051;46.320;48.028;2023-03-31T07:16:14;4.78;;;2.03;;
75470;SDS011;64051;46.320;48.028;2023-03-31T07:18:40;5.63;;;2.22;;
75470;SDS011;64051;46.320;48.028;2023-03-31T07:21:06;5.03;;;2.67;;
75470;SDS011;64051;46.320;48.028;2023-03-31T07:23:38;5.20;;;2.33;;
75470;SDS011;64051;46.320;48.028;2023-03-31T07:26:07;2.92;;;1.55;;
75470;SDS011;64051;46.320;48.028;2023-03-31T07:28:33;2.97;;;1.60;;
75470;SDS011;64051;46.320;48.028;2023-03-31T07:30:59;6.18;;;1.90;;
75470;SDS011;64051;46.320;48.028;2023-03-31T07:33:25;3.08;;;1.80;;
75470;SDS011;64051;46.320;48.028;2023-03-31T07:35:54;4.00;;;1.52;;
75470;SDS011;64051;46.320;48.028;2023-03-31T07:38:20;2.63;;;1.60;;
75470;SDS011;64051;46.320;48.028;2023-03-31T07:40:46;6.72;;;1.88;;
75470;SDS011;64051;46.320;48.028;2023-03-31T07:43:12;3.05;;;1.60;;
75470;SDS011;64051;46.320;48.028;2023-03-31T07:45:38;3.53;;;1.70;;
75470;SDS011;64051;46.320;48.028;2023-03-31T07:48:05;4.63;;;1.83;;
75470;SDS011;64051;46.320;48.028;2023-03-31T07:50:33;3.72;;;1.70;;
75470;SDS011;64051;46.320;48.028;2023-03-31T07:53:13;4.28;;;1.77;;
75470;SDS011;64051;46.320;48.028;2023-03-31T07:55:40;2.60;;;1.33;;
75470;SDS011;64051;46.320;48.028;2023-03-31T07:58:06;4.55;;;1.85;;
75470;SDS011;64051;46.320;48.028;2023-03-31T08:00:32;4.13;;;1.70;;
75470;SDS011;64051;46.320;48.028;2023-03-31T08:03:01;3.92;;;1.58;;
75470;SDS011;64051;46.320;48.028;2023-03-31T08:05:30;2.88;;;1.58;;
75470;SDS011;64051;46.320;48.028;2023-03-31T08:08:02;3.83;;;1.83;;
75470;SDS011;64051;46.320;48.028;2023-03-31T08:10:28;4.43;;;1.58;;
75470;SDS011;64051;46.320;48.028;2023-03-31T08:12:54;2.85;;;1.42;;
75470;SDS011;64051;46.320;48.028;2023-03-31T08:15:20;3.63;;;1.85;;
75470;SDS011;64051;46.320;48.028;2023-03-31T08:17:52;4.55;;;1.60;;
75470;SDS011;64051;46.320;48.028;2023-03-31T08:20:20;3.58;;;1.73;;
75470;SDS011;64051;46.320;48.028;2023-03-31T08:22:46;2.80;;;1.60;;
75470;SDS011;64051;46.320;48.028;2023-03-31T08:25:12;3.17;;;1.63;;
75470;SDS011;64051;46.320;48.028;2023-03-31T08:27:39;2.80;;;1.38;;
75470;SDS011;64051;46.320;48.028;2023-03-31T08:30:07;3.75;;;1.88;;
75470;SDS011;64051;46.320;48.028;2023-03-31T08:32:39;4.63;;;1.50;;
75470;SDS011;64051;46.320;48.028;2023-03-31T08:35:08;2.75;;;1.27;;
75470;SDS011;64051;46.320;48.028;2023-03-31T08:37:35;4.20;;;1.70;;
75470;SDS011;64051;46.320;48.028;2023-03-31T08:40:02;3.38;;;1.50;;
75470;SDS011;64051;46.320;48.028;2023-03-31T08:42:48;3.65;;;1.67;;
75470;SDS011;64051;46.320;48.028;2023-03-31T08:45:31;3.40;;;1.40;;
75470;SDS011;64051;46.320;48.028;2023-03-31T08:48:03;2.15;;;1.30;;
75470;SDS011;64051;46.320;48.028;2023-03-31T08:50:43;1.98;;;1.20;;
75470;SDS011;64051;46.320;48.028;2023-03-31T08:53:21;2.65;;;1.40;;
75470;SDS011;64051;46.320;48.028;2023-03-31T08:56:00;5.22;;;1.63;;
75470;SDS011;64051;46.320;48.028;2023-03-31T08:58:33;3.58;;;1.95;;
75470;SDS011;64051;46.320;48.028;2023-03-31T09:01:26;2.95;;;1.67;;
75470;SDS011;64051;46.320;48.028;2023-03-31T09:18:34;4.80;;;1.58;;
75470;SDS011;64051;46.320;48.028;2023-03-31T09:27:02;1.20;;;1.10;;
75470;SDS011;64051;46.320;48.028;2023-03-31T09:32:36;2.67;;;1.20;;
75470;SDS011;64051;46.320;48.028;2023-03-31T09:35:19;1.98;;;1.02;;
75470;SDS011;64051;46.320;48.028;2023-03-31T09:37:47;2.95;;;1.30;;
75470;SDS011;64051;46.320;48.028;2023-03-31T09:40:17;3.28;;;1.40;;
75470;SDS011;64051;46.320;48.028;2023-03-31T09:42:56;2.15;;;1.20;;
75470;SDS011;64051;46.320;48.028;2023-03-31T09:47:51;1.55;;;1.17;;
75470;SDS011;64051;46.320;48.028;2023-03-31T09:50:21;1.88;;;1.13;;
75470;SDS011;64051;46.320;48.028;2023-03-31T09:52:52;6.93;;;1.80;;
75470;SDS011;64051;46.320;48.028;2023-03-31T09:55:40;2.85;;;1.35;;
75470;SDS011;64051;46.320;48.028;2023-03-31T09:58:14;3.15;;;1.35;;
75470;SDS011;64051;46.320;48.028;2023-03-31T10:00:42;1.83;;;1.02;;
75470;SDS011;64051;46.320;48.028;2023-03-31T10:03:22;5.18;;;1.40;;
75470;SDS011;64051;46.320;48.028;2023-03-31T10:05:50;1.40;;;1.20;;
75470;SDS011;64051;46.320;48.028;2023-03-31T10:08:31;2.70;;;1.40;;
75470;SDS011;64051;46.320;48.028;2023-03-31T10:11:28;4.53;;;1.50;;
75470;SDS011;64051;46.320;48.028;2023-03-31T10:16:42;2.67;;;1.30;;
75470;SDS011;64051;46.320;48.028;2023-03-31T10:19:26;2.25;;;1.20;;
75470;SDS011;64051;46.320;48.028;2023-03-31T10:21:58;2.97;;;1.40;;
75470;SDS011;64051;46.320;48.028;2023-03-31T10:24:43;1.83;;;1.23;;
75470;SDS011;64051;46.320;48.028;2023-03-31T10:27:20;3.58;;;1.38;;
75470;SDS011;64051;46.320;48.028;2023-03-31T10:29:53;1.77;;;1.30;;
75470;SDS011;64051;46.320;48.028;2023-03-31T10:35:25;5.00;;;1.77;;
75470;SDS011;64051;46.320;48.028;2023-03-31T10:37:56;2.63;;;1.23;;
75470;SDS011;64051;46.320;48.028;2023-03-31T10:40:27;5.97;;;1.50;;
75470;SDS011;64051;46.320;48.028;2023-03-31T10:45:42;2.42;;;1.30;;
75470;SDS011;64051;46.320;48.028;2023-03-31T10:48:23;2.78;;;1.30;;
75470;SDS011;64051;46.320;48.028;2023-03-31T10:51:03;36.63;;;10.45;;
75470;SDS011;64051;46.320;48.028;2023-03-31T10:53:38;1.65;;;1.20;;
75470;SDS011;64051;46.320;48.028;2023-03-31T10:56:22;111.05;;;33.60;;
75470;SDS011;64051;46.320;48.028;2023-03-31T11:07:34;2.78;;;1.30;;
75470;SDS011;64051;46.320;48.028;2023-03-31T11:35:46;3.03;;;1.35;;
75470;SDS011;64051;46.320;48.028;2023-03-31T11:44:00;2.00;;;1.35;;
75470;SDS011;64051;46.320;48.028;2023-03-31T11:47:18;2.10;;;1.10;;
75470;SDS011;64051;46.320;48.028;2023-03-31T11:49:27;1.27;;;0.98;;
75470;SDS011;64051;46.320;48.028;2023-03-31T11:52:19;3.08;;;1.40;;
75470;SDS011;64051;46.320;48.028;2023-03-31T11:54:56;3.33;;;1.38;;
75470;SDS011;64051;46.320;48.028;2023-03-31T12:06:36;3.90;;;1.30;;
75470;SDS011;64051;46.320;48.028;2023-03-31T12:14:26;3.10;;;1.40;;
75470;SDS011;64051;46.320;48.028;2023-03-31T12:17:07;9.35;;;3.70;;
75470;SDS011;64051;46.320;48.028;2023-03-31T12:19:47;3.60;;;1.90;;
75470;SDS011;64051;46.320;48.028;2023-03-31T12:25:00;2.90;;;1.40;;
75470;SDS011;64051;46.320;48.028;2023-03-31T12:27:42;3.13;;;1.20;;
75470;SDS011;64051;46.320;48.028;2023-03-31T12:33:03;4.13;;;1.63;;
75470;SDS011;64051;46.320;48.028;2023-03-31T12:41:43;1.83;;;1.20;;
75470;SDS011;64051;46.320;48.028;2023-03-31T12:52:56;2.67;;;1.10;;
75470;SDS011;64051;46.320;48.028;2023-03-31T13:11:45;3.13;;;1.30;;
75470;SDS011;64051;46.320;48.028;2023-03-31T13:16:48;1.58;;;1.02;;
75470;SDS011;64051;46.320;48.028;2023-03-31T13:19:29;2.83;;;1.30;;
75470;SDS011;64051;46.320;48.028;2023-03-31T13:22:26;26.67;;;10.20;;
75470;SDS011;64051;46.320;48.028;2023-03-31T13:27:54;9.13;;;2.47;;
75470;SDS011;64051;46.320;48.028;2023-03-31T13:35:34;3.90;;;1.52;;
75470;SDS011;64051;46.320;48.028;2023-03-31T13:38:22;2.85;;;1.20;;
75470;SDS011;64051;46.320;48.028;2023-03-31T13:52:25;2.35;;;1.10;;
75470;SDS011;64051;46.320;48.028;2023-03-31T13:55:21;2.92;;;1.30;;
75470;SDS011;64051;46.320;48.028;2023-03-31T14:07:11;4.68;;;1.25;;
75470;SDS011;64051;46.320;48.028;2023-03-31T14:09:23;9.88;;;1.40;;
75470;SDS011;64051;46.320;48.028;2023-03-31T14:12:17;2.55;;;1.27;;
75470;SDS011;64051;46.320;48.028;2023-03-31T14:14:44;3.85;;;1.40;;
75470;SDS011;64051;46.320;48.028;2023-03-31T14:17:10;1.67;;;0.90;;
75470;SDS011;64051;46.320;48.028;2023-03-31T14:31:35;2.60;;;1.42;;
75470;SDS011;64051;46.320;48.028;2023-03-31T14:37:09;5.65;;;1.70;;
75470;SDS011;64051;46.320;48.028;2023-03-31T14:39:47;2.72;;;1.30;;
75470;SDS011;64051;46.320;48.028;2023-03-31T14:42:28;3.08;;;1.20;;
75470;SDS011;64051;46.320;48.028;2023-03-31T14:45:05;4.45;;;1.30;;
75470;SDS011;64051;46.320;48.028;2023-03-31T14:47:40;4.35;;;1.20;;
75470;SDS011;64051;46.320;48.028;2023-03-31T14:50:15;7.47;;;1.27;;
75470;SDS011;64051;46.320;48.028;2023-03-31T14:52:49;4.88;;;1.00;;
75470;SDS011;64051;46.320;48.028;2023-03-31T14:55:23;2.85;;;1.30;;
75470;SDS011;64051;46.320;48.028;2023-03-31T14:57:52;4.85;;;1.60;;
75470;SDS011;64051;46.320;48.028;2023-03-31T15:00:27;5.88;;;1.58;;
75470;SDS011;64051;46.320;48.028;2023-03-31T15:03:02;1.63;;;1.05;;
75470;SDS011;64051;46.320;48.028;2023-03-31T15:05:36;3.70;;;1.48;;
75470;SDS011;64051;46.320;48.028;2023-03-31T15:08:06;7.78;;;1.40;;
75470;SDS011;64051;46.320;48.028;2023-03-31T15:10:42;2.75;;;1.40;;
75470;SDS011;64051;46.320;48.028;2023-03-31T15:13:16;2.30;;;1.10;;
75470;SDS011;64051;46.320;48.028;2023-03-31T15:15:52;5.82;;;1.60;;
75470;SDS011;64051;46.320;48.028;2023-03-31T15:18:21;3.15;;;1.40;;
75470;SDS011;64051;46.320;48.028;2023-03-31T15:20:56;6.68;;;2.30;;
75470;SDS011;64051;46.320;48.028;2023-03-31T15:23:23;19.77;;;8.15;;
75470;SDS011;64051;46.320;48.028;2023-03-31T15:25:57;10.57;;;2.90;;
75470;SDS011;64051;46.320;48.028;2023-03-31T15:28:27;7.82;;;2.90;;
75470;SDS011;64051;46.320;48.028;2023-03-31T15:31:04;11.05;;;3.88;;
75470;SDS011;64051;46.320;48.028;2023-03-31T15:33:34;13.07;;;3.20;;
75470;SDS011;64051;46.320;48.028;2023-03-31T15:36:09;10.57;;;3.50;;
75470;SDS011;64051;46.320;48.028;2023-03-31T15:38:39;8.57;;;2.85;;
75470;SDS011;64051;46.320;48.028;2023-03-31T15:41:14;9.80;;;3.45;;
75470;SDS011;64051;46.320;48.028;2023-03-31T15:49:17;8.85;;;2.40;;
75470;SDS011;64051;46.320;48.028;2023-03-31T15:51:51;5.85;;;1.88;;
75470;SDS011;64051;46.320;48.028;2023-03-31T15:54:34;11.00;;;2.60;;
75470;SDS011;64051;46.320;48.028;2023-03-31T15:57:13;8.38;;;3.03;;
75470;SDS011;64051;46.320;48.028;2023-03-31T16:02:23;9.10;;;2.58;;
75470;SDS011;64051;46.320;48.028;2023-03-31T16:04:56;6.63;;;1.98;;
75470;SDS011;64051;46.320;48.028;2023-03-31T16:07:31;5.90;;;2.00;;
75470;SDS011;64051;46.320;48.028;2023-03-31T16:15:15;6.78;;;2.08;;
75470;SDS011;64051;46.320;48.028;2023-03-31T16:17:55;5.90;;;1.80;;
75470;SDS011;64051;46.320;48.028;2023-03-31T16:20:36;6.03;;;2.03;;
75470;SDS011;64051;46.320;48.028;2023-03-31T16:23:13;6.03;;;2.00;;
75470;SDS011;64051;46.320;48.028;2023-03-31T16:25:42;5.88;;;2.35;;
75470;SDS011;64051;46.320;48.028;2023-03-31T16:28:24;7.00;;;2.35;;
75470;SDS011;64051;46.320;48.028;2023-03-31T16:30:58;12.02;;;2.75;;
75470;SDS011;64051;46.320;48.028;2023-03-31T16:33:27;6.25;;;2.20;;
75470;SDS011;64051;46.320;48.028;2023-03-31T16:36:03;9.20;;;2.47;;
75470;SDS011;64051;46.320;48.028;2023-03-31T16:38:55;6.10;;;2.10;;
75470;SDS011;64051;46.320;48.028;2023-03-31T16:41:33;8.55;;;3.28;;
75470;SDS011;64051;46.320;48.028;2023-03-31T16:44:08;5.22;;;2.13;;
75470;SDS011;64051;46.320;48.028;2023-03-31T16:46:35;10.70;;;2.75;;
75470;SDS011;64051;46.320;48.028;2023-03-31T16:49:01;6.13;;;2.65;;
75470;SDS011;64051;46.320;48.028;2023-03-31T16:51:33;8.75;;;2.83;;
75470;SDS011;64051;46.320;48.028;2023-03-31T16:54:00;9.20;;;2.40;;
75470;SDS011;64051;46.320;48.028;2023-03-31T16:56:26;8.85;;;2.40;;
75470;SDS011;64051;46.320;48.028;2023-03-31T16:58:54;8.30;;;2.70;;
75470;SDS011;64051;46.320;48.028;2023-03-31T17:01:26;9.07;;;2.78;;
75470;SDS011;64051;46.320;48.028;2023-03-31T17:03:52;8.02;;;2.90;;
75470;SDS011;64051;46.320;48.028;2023-03-31T17:06:25;7.43;;;2.58;;
75470;SDS011;64051;46.320;48.028;2023-03-31T17:08:58;9.70;;;3.75;;
75470;SDS011;64051;46.320;48.028;2023-03-31T17:11:26;12.45;;;3.85;;
75470;SDS011;64051;46.320;48.028;2023-03-31T17:14:04;15.43;;;4.88;;
75470;SDS011;64051;46.320;48.028;2023-03-31T17:16:39;19.52;;;7.05;;
75470;SDS011;64051;46.320;48.028;2023-03-31T17:19:07;18.88;;;7.05;;
75470;SDS011;64051;46.320;48.028;2023-03-31T17:21:36;19.48;;;6.85;;
75470;SDS011;64051;46.320;48.028;2023-03-31T17:24:06;19.13;;;6.65;;
75470;SDS011;64051;46.320;48.028;2023-03-31T17:26:37;28.13;;;9.88;;
75470;SDS011;64051;46.320;48.028;2023-03-31T17:29:14;24.17;;;9.10;;
75470;SDS011;64051;46.320;48.028;2023-03-31T17:31:43;25.80;;;11.25;;
75470;SDS011;64051;46.320;48.028;2023-03-31T17:34:12;25.00;;;10.50;;
75470;SDS011;64051;46.320;48.028;2023-03-31T17:36:41;21.50;;;9.82;;
75470;SDS011;64051;46.320;48.028;2023-03-31T17:39:08;30.05;;;11.07;;
75470;SDS011;64051;46.320;48.028;2023-03-31T17:41:37;30.70;;;12.02;;
75470;SDS011;64051;46.320;48.028;2023-03-31T17:44:04;28.33;;;12.63;;
75470;SDS011;64051;46.320;48.028;2023-03-31T17:46:33;30.60;;;12.50;;
75470;SDS011;64051;46.320;48.028;2023-03-31T17:49:04;30.50;;;13.10;;
75470;SDS011;64051;46.320;48.028;2023-03-31T17:51:35;31.55;;;13.27;;
75470;SDS011;64051;46.320;48.028;2023-03-31T17:54:01;32.65;;;13.65;;
75470;SDS011;64051;46.320;48.028;2023-03-31T17:56:40;35.60;;;14.82;;
75470;SDS011;64051;46.320;48.028;2023-03-31T17:59:18;32.35;;;13.30;;
75470;SDS011;64051;46.320;48.028;2023-03-31T18:01:45;29.40;;;11.70;;
75470;SDS011;64051;46.320;48.028;2023-03-31T18:04:17;30.55;;;13.18;;
75470;SDS011;64051;46.320;48.028;2023-03-31T18:06:48;32.55;;;13.55;;
75470;SDS011;64051;46.320;48.028;2023-03-31T18:09:23;42.45;;;14.90;;
75470;SDS011;64051;46.320;48.028;2023-03-31T18:11:51;34.70;;;14.40;;
75470;SDS011;64051;46.320;48.028;2023-03-31T18:14:18;34.08;;;14.63;;
75470;SDS011;64051;46.320;48.028;2023-03-31T18:16:46;34.67;;;13.52;;
75470;SDS011;64051;46.320;48.028;2023-03-31T18:19:15;32.97;;;12.70;;
75470;SDS011;64051;46.320;48.028;2023-03-31T18:21:42;31.05;;;12.68;;
75470;SDS011;64051;46.320;48.028;2023-03-31T18:24:14;28.27;;;11.90;;
75470;SDS011;64051;46.320;48.028;2023-03-31T18:26:45;27.92;;;11.02;;
75470;SDS011;64051;46.320;48.028;2023-03-31T18:29:14;24.70;;;11.00;;
75470;SDS011;64051;46.320;48.028;2023-03-31T18:31:42;29.58;;;12.02;;
75470;SDS011;64051;46.320;48.028;2023-03-31T18:34:14;41.15;;;13.77;;
75470;SDS011;64051;46.320;48.028;2023-03-31T18:36:48;34.33;;;14.70;;
75470;SDS011;64051;46.320;48.028;2023-03-31T18:39:30;33.30;;;13.85;;
75470;SDS011;64051;46.320;48.028;2023-03-31T18:41:56;32.30;;;13.70;;
75470;SDS011;64051;46.320;48.028;2023-03-31T18:44:32;41.97;;;16.35;;